Time;durP1;ratioP1;P1;durP2;ratioP2;P2;SDS_P1;SDS_P2;PMS_P1;PMS_P2;Temp;Humidity;BMP_temperature;BMP_pressure;BME280_temperature;BME280_humidity;BME280_pressure;Samples;Min_cycle;Max_cycle;Signal;HPM_P1;HPM_P2
2022/11/11 00:00:58;;;;;;;4.13;1.70;;;11.30;99.90;;;;;;5006079;28;20542;-81
2022/11/11 00:03:25;;;;;;;4.37;2.10;;;11.30;99.90;;;;;;5013221;28;20541;-80
2022/11/11 00:05:52;;;;;;;6.60;2.27;;;11.30;99.90;;;;;;5023454;28;20994;-82
2022/11/11 00:08:19;;;;;;;2.73;1.97;;;11.30;99.90;;;;;;5023171;28;20526;-81
2022/11/11 00:10:46;;;;;;;3.37;2.43;;;11.30;99.90;;;;;;5023665;28;20534;-81
2022/11/11 00:13:14;;;;;;;4.20;2.10;;;11.30;99.90;;;;;;5023212;28;20489;-81
2022/11/11 00:15:41;;;;;;;4.70;1.97;;;11.30;99.90;;;;;;5018622;28;20542;-80
2022/11/11 00:26:26;;;;;;;7.90;2.80;;;11.00;99.90;;;;;;5008581;28;20472;-80
2022/11/11 00:28:54;;;;;;;5.00;2.17;;;11.00;99.90;;;;;;5007449;28;20542;-81
2022/11/11 00:31:21;;;;;;;4.30;2.23;;;11.00;99.90;;;;;;5008638;28;20533;-80
2022/11/11 00:33:48;;;;;;;4.30;2.33;;;11.00;99.90;;;;;;5023935;28;20487;-79
2022/11/11 00:36:13;;;;;;;3.37;1.90;;;11.00;99.90;;;;;;5027966;28;20516;-79
2022/11/11 00:38:48;;;;;;;3.77;2.60;;;11.00;99.90;;;;;;5025346;28;20607;-80
2022/11/11 00:41:17;;;;;;;4.20;1.90;;;11.00;99.90;;;;;;5026477;28;20214;-79
2022/11/11 00:43:44;;;;;;;5.47;2.43;;;11.00;99.90;;;;;;5019879;28;20460;-78
2022/11/11 00:51:47;;;;;;;5.80;2.20;;;10.90;99.90;;;;;;5002918;28;20406;-81
2022/11/11 00:54:14;;;;;;;6.93;2.60;;;11.00;99.90;;;;;;5003428;28;20454;-82
2022/11/11 00:56:40;;;;;;;6.10;2.23;;;10.90;99.90;;;;;;5003628;28;20525;-81
2022/11/11 00:59:08;;;;;;;4.23;2.80;;;10.90;99.90;;;;;;5021447;28;20475;-78
2022/11/11 01:01:37;;;;;;;4.73;2.20;;;10.80;99.90;;;;;;5023294;28;20580;-81
2022/11/11 01:04:04;;;;;;;5.50;3.33;;;10.90;99.90;;;;;;5023395;28;20465;-82
2022/11/11 01:06:32;;;;;;;4.50;2.37;;;10.80;99.90;;;;;;5023490;28;20525;-79
2022/11/11 01:09:04;;;;;;;4.70;2.30;;;10.80;99.90;;;;;;5023411;28;20537;-81
2022/11/11 01:11:31;;;;;;;9.30;3.10;;;10.80;99.90;;;;;;5024522;28;20510;-79
2022/11/11 01:13:57;;;;;;;5.67;2.63;;;10.90;99.90;;;;;;5015852;28;20533;-80
2022/11/11 01:16:26;;;;;;;7.17;3.00;;;10.90;99.90;;;;;;5003539;28;20541;-81
2022/11/11 01:18:54;;;;;;;7.93;2.67;;;10.90;99.90;;;;;;5002256;28;20535;-80
2022/11/11 01:21:23;;;;;;;4.10;2.10;;;10.80;99.90;;;;;;5002797;28;20486;-81
2022/11/11 01:23:52;;;;;;;7.53;2.73;;;10.80;99.90;;;;;;5014563;28;20601;-81
2022/11/11 01:26:21;;;;;;;4.20;2.33;;;10.90;99.90;;;;;;5022348;28;20529;-81
2022/11/11 01:28:49;;;;;;;4.93;2.20;;;11.00;99.90;;;;;;5021399;28;20558;-81
2022/11/11 01:31:17;;;;;;;4.37;2.33;;;11.00;99.90;;;;;;5008455;28;20490;-80
2022/11/11 01:33:44;;;;;;;7.33;2.47;;;11.00;99.90;;;;;;5003264;28;20541;-81
2022/11/11 01:36:15;;;;;;;4.40;2.13;;;10.90;99.90;;;;;;5003003;28;20457;-82
2022/11/11 01:38:43;;;;;;;5.60;2.70;;;10.90;99.90;;;;;;5001224;28;20549;-81
2022/11/11 01:41:35;;;;;;;4.73;2.37;;;10.90;99.90;;;;;;5002078;28;20521;-82
2022/11/11 01:44:12;;;;;;;4.30;2.37;;;10.80;99.90;;;;;;5002438;28;20924;-80
2022/11/11 01:46:43;;;;;;;6.90;2.40;;;10.80;99.90;;;;;;5004569;28;20446;-82
2022/11/11 01:49:21;;;;;;;3.10;2.03;;;10.80;99.90;;;;;;5010653;28;20905;-79
2022/11/11 01:51:55;;;;;;;5.13;2.53;;;10.70;99.90;;;;;;5002232;28;21056;-82
2022/11/11 01:54:26;;;;;;;4.40;2.67;;;10.80;99.90;;;;;;5002178;28;21069;-81
2022/11/11 01:56:59;;;;;;;4.00;1.93;;;10.70;99.90;;;;;;5001861;28;20448;-81
2022/11/11 01:59:27;;;;;;;7.57;2.90;;;10.70;99.90;;;;;;5001424;28;20472;-81
2022/11/11 02:01:54;;;;;;;5.90;2.70;;;10.60;99.90;;;;;;5014108;28;20576;-81
2022/11/11 02:07:10;;;;;;;3.77;2.37;;;10.70;99.90;;;;;;5021088;28;20428;-81
2022/11/11 02:09:39;;;;;;;8.00;2.90;;;10.70;99.90;;;;;;5020430;28;20492;-82
2022/11/11 02:14:57;;;;;;;4.10;2.03;;;10.70;99.90;;;;;;5019123;28;21256;-82
2022/11/11 02:17:26;;;;;;;9.17;2.90;;;10.50;99.90;;;;;;5001743;28;20458;-82
2022/11/11 02:19:56;;;;;;;5.13;2.33;;;10.50;99.90;;;;;;5001127;28;20471;-81
2022/11/11 02:22:40;;;;;;;8.87;2.27;;;10.50;99.90;;;;;;5001802;28;20521;-79
2022/11/11 02:25:11;;;;;;;4.73;2.03;;;10.50;99.90;;;;;;5001894;28;20505;-80
2022/11/11 02:27:43;;;;;;;2.50;1.50;;;10.50;99.90;;;;;;5001709;28;21014;-79
2022/11/11 02:30:14;;;;;;;3.03;1.50;;;10.50;99.90;;;;;;5012731;28;20553;-80
2022/11/11 02:32:42;;;;;;;4.50;2.00;;;10.50;99.90;;;;;;5020860;28;20469;-79
2022/11/11 02:35:13;;;;;;;3.17;1.80;;;10.40;99.90;;;;;;5021687;28;20513;-80
2022/11/11 02:37:43;;;;;;;4.50;2.13;;;10.40;99.90;;;;;;5021572;28;21060;-80
2022/11/11 02:40:14;;;;;;;5.50;1.80;;;10.30;99.90;;;;;;5023807;28;20588;-79
2022/11/11 02:42:41;;;;;;;4.50;1.80;;;10.30;99.90;;;;;;5022398;28;20565;-79
2022/11/11 02:45:08;;;;;;;3.60;2.00;;;10.40;99.90;;;;;;5023385;28;20453;-80
2022/11/11 02:47:35;;;;;;;4.70;1.77;;;10.40;99.90;;;;;;5024666;28;20464;-80
2022/11/11 02:50:02;;;;;;;3.90;2.00;;;10.30;99.90;;;;;;5023093;28;20500;-81
2022/11/11 02:52:29;;;;;;;5.23;1.97;;;10.30;99.90;;;;;;5024343;28;20911;-79
2022/11/11 02:54:56;;;;;;;5.73;2.40;;;10.30;99.90;;;;;;5025366;28;20450;-80
2022/11/11 02:57:24;;;;;;;3.80;2.40;;;10.10;99.90;;;;;;5006165;28;20528;-81
2022/11/11 02:59:51;;;;;;;5.93;2.10;;;10.10;99.90;;;;;;5023874;28;20543;-82
2022/11/11 03:02:18;;;;;;;6.70;2.10;;;10.20;99.90;;;;;;5049864;28;20567;-78
2022/11/11 03:04:45;;;;;;;6.37;1.97;;;10.20;99.90;;;;;;5049205;28;20550;-81
2022/11/11 03:07:11;;;;;;;10.00;2.80;;;10.20;99.90;;;;;;5049007;28;20508;-81
2022/11/11 03:09:38;;;;;;;7.03;1.73;;;10.10;99.90;;;;;;5038598;28;20501;-80
2022/11/11 03:12:05;;;;;;;4.80;2.30;;;10.20;99.90;;;;;;5010016;28;20552;-80
2022/11/11 03:14:33;;;;;;;7.07;2.17;;;10.20;99.90;;;;;;5009325;28;20444;-79
2022/11/11 03:19:45;;;;;;;6.67;2.20;;;10.20;99.90;;;;;;5008436;28;20469;-79
2022/11/11 03:22:11;;;;;;;6.30;2.33;;;10.20;99.90;;;;;;5008650;28;20935;-79
2022/11/11 03:27:22;;;;;;;4.03;2.27;;;10.20;99.90;;;;;;5028833;28;20209;-82
2022/11/11 03:29:50;;;;;;;4.07;3.10;;;10.20;99.90;;;;;;5028671;28;20496;-79
2022/11/11 03:32:17;;;;;;;4.57;2.37;;;10.20;99.90;;;;;;5028867;28;20515;-79
2022/11/11 03:34:43;;;;;;;3.97;2.70;;;10.20;99.90;;;;;;5027915;28;20467;-78
2022/11/11 03:39:56;;;;;;;4.50;2.10;;;10.30;99.90;;;;;;5006727;28;20604;-80
2022/11/11 03:42:23;;;;;;;7.57;2.40;;;10.30;99.90;;;;;;5008974;28;20489;-79
2022/11/11 03:44:51;;;;;;;5.17;2.33;;;10.20;99.90;;;;;;5008795;28;20533;-80
2022/11/11 03:47:19;;;;;;;5.30;2.37;;;10.30;99.90;;;;;;5008408;28;20886;-78
2022/11/11 03:49:46;;;;;;;4.33;2.07;;;10.30;99.90;;;;;;5005837;28;20868;-78
2022/11/11 03:52:13;;;;;;;4.30;2.33;;;10.30;99.90;;;;;;5011754;28;20456;-79
2022/11/11 03:54:40;;;;;;;4.43;2.33;;;10.30;99.90;;;;;;5028146;28;20521;-78
2022/11/11 04:00:05;;;;;;;5.03;2.73;;;10.30;99.90;;;;;;4966086;28;21084;-79
2022/11/11 04:10:45;;;;;;;2.63;1.77;;;10.40;99.90;;;;;;5026072;28;20433;-78
2022/11/11 04:16:07;;;;;;;5.53;2.80;;;10.30;99.90;;;;;;5026833;28;20417;-79
2022/11/11 04:25:47;;;;;;;3.87;1.80;;;10.10;99.90;;;;;;5027475;28;21047;-79
2022/11/11 04:26:53;;;;;;;6.10;2.10;;;10.20;99.90;;;;;;5028038;28;20499;-81
2022/11/11 04:29:29;;;;;;;4.37;1.73;;;10.20;99.90;;;;;;5027200;28;20473;-81
2022/11/11 04:34:45;;;;;;;3.80;1.80;;;10.20;99.90;;;;;;5021790;28;20456;-79
2022/11/11 04:37:13;;;;;;;2.73;1.83;;;10.00;99.90;;;;;;5006650;28;20518;-79
2022/11/11 04:42:24;;;;;;;3.30;2.07;;;10.10;99.90;;;;;;5004875;28;20520;-79
2022/11/11 04:47:38;;;;;;;4.13;2.10;;;10.00;99.90;;;;;;5027088;28;20813;-79
2022/11/11 04:50:06;;;;;;;5.30;1.83;;;10.00;99.90;;;;;;5025464;28;20559;-79
2022/11/11 04:52:32;;;;;;;3.67;2.23;;;10.10;99.90;;;;;;5027090;28;20475;-79
2022/11/11 04:57:46;;;;;;;8.73;2.80;;;10.10;99.90;;;;;;5025699;28;20430;-80
2022/11/11 05:00:15;;;;;;;4.07;2.70;;;10.20;99.90;;;;;;5023688;28;20578;-79
2022/11/11 05:05:28;;;;;;;5.17;2.43;;;10.30;99.90;;;;;;5020176;28;20439;-80
2022/11/11 05:10:39;;;;;;;5.00;2.13;;;10.20;99.90;;;;;;5025002;28;20958;-79
2022/11/11 05:21:35;;;;;;;4.23;1.53;;;10.30;99.90;;;;;;4958909;29;21072;-78
2022/11/11 05:26:47;;;;;;;3.33;1.80;;;10.30;99.90;;;;;;5019311;28;20440;-79
2022/11/11 05:29:13;;;;;;;3.90;1.63;;;10.30;99.90;;;;;;5006816;28;20483;-79
2022/11/11 05:31:40;;;;;;;3.90;1.90;;;10.30;99.90;;;;;;5022663;28;20457;-78
2022/11/11 05:34:08;;;;;;;4.77;1.90;;;10.20;99.90;;;;;;5022292;28;20542;-78
2022/11/11 05:36:38;;;;;;;4.73;2.27;;;10.20;99.90;;;;;;5028636;28;20567;-77
2022/11/11 05:39:05;;;;;;;3.80;2.37;;;10.20;99.90;;;;;;5021211;28;20540;-81
2022/11/11 05:41:31;;;;;;;3.73;2.60;;;10.20;99.90;;;;;;5015835;28;20458;-78
2022/11/11 05:43:58;;;;;;;4.33;1.90;;;10.20;99.90;;;;;;5015714;28;20809;-79
2022/11/11 05:46:25;;;;;;;2.40;1.70;;;10.20;99.90;;;;;;5015970;28;20461;-78
2022/11/11 05:51:43;;;;;;;3.10;1.70;;;10.20;99.90;;;;;;5001423;28;20453;-78
2022/11/11 05:54:10;;;;;;;3.53;2.10;;;10.10;99.90;;;;;;5033656;28;20880;-77
2022/11/11 05:56:37;;;;;;;4.53;2.03;;;10.20;99.90;;;;;;5024590;28;20448;-77
2022/11/11 05:59:04;;;;;;;3.63;2.40;;;10.10;99.90;;;;;;5014593;28;20496;-78
2022/11/11 06:01:31;;;;;;;5.77;2.17;;;10.10;99.90;;;;;;5014997;28;20531;-77
2022/11/11 06:03:58;;;;;;;4.77;2.20;;;10.10;99.90;;;;;;5023215;28;20487;-77
2022/11/11 06:06:25;;;;;;;7.80;3.40;;;10.10;99.90;;;;;;5035687;28;20542;-78
2022/11/11 06:08:53;;;;;;;8.07;3.60;;;10.10;99.90;;;;;;5016006;28;20473;-79
2022/11/11 06:11:21;;;;;;;4.53;2.73;;;10.10;99.90;;;;;;5016526;28;20599;-77
2022/11/11 06:13:48;;;;;;;4.10;2.50;;;10.10;99.90;;;;;;5026096;28;20809;-77
2022/11/11 06:16:16;;;;;;;4.70;2.30;;;10.10;99.90;;;;;;5016618;28;20453;-79
2022/11/11 06:18:42;;;;;;;4.83;1.90;;;10.00;99.90;;;;;;5015689;28;20495;-77
2022/11/11 06:21:10;;;;;;;7.27;2.33;;;10.00;99.90;;;;;;5016908;28;20753;-78
2022/11/11 06:23:36;;;;;;;4.57;2.13;;;9.90;99.90;;;;;;5017085;28;20481;-78
2022/11/11 06:26:14;;;;;;;3.63;1.73;;;9.90;99.90;;;;;;5016237;28;20938;-78
2022/11/11 06:28:41;;;;;;;5.20;1.87;;;9.90;99.90;;;;;;5016274;28;20477;-78
2022/11/11 06:31:09;;;;;;;4.30;2.03;;;9.90;99.90;;;;;;5016428;28;20490;-79
2022/11/11 06:33:37;;;;;;;3.80;1.70;;;9.90;99.90;;;;;;5017108;28;20452;-77
2022/11/11 06:36:05;;;;;;;4.13;2.40;;;9.90;99.90;;;;;;5022990;28;20456;-77
2022/11/11 06:38:32;;;;;;;3.90;1.83;;;9.80;99.90;;;;;;5022934;28;20543;-77
2022/11/11 06:40:59;;;;;;;4.60;2.20;;;9.80;99.90;;;;;;5023956;28;20476;-78
2022/11/11 06:43:27;;;;;;;4.13;1.67;;;9.70;99.90;;;;;;5022402;28;20498;-78
2022/11/11 06:45:55;;;;;;;7.07;2.30;;;9.70;99.90;;;;;;5023689;28;20470;-78
2022/11/11 06:48:23;;;;;;;5.17;2.10;;;9.70;99.90;;;;;;5023428;28;20454;-78
2022/11/11 06:50:50;;;;;;;3.10;2.27;;;9.70;99.90;;;;;;5023792;28;20457;-78
2022/11/11 06:53:19;;;;;;;3.20;1.90;;;9.70;99.90;;;;;;5024878;28;20456;-79
2022/11/11 06:55:46;;;;;;;3.13;1.67;;;9.70;99.90;;;;;;5024842;28;20579;-78
2022/11/11 06:58:16;;;;;;;5.27;1.93;;;9.60;99.90;;;;;;5024264;28;20447;-78
2022/11/11 07:00:45;;;;;;;6.70;1.80;;;9.60;99.90;;;;;;5024339;28;20451;-78
2022/11/11 07:03:13;;;;;;;4.20;1.80;;;9.60;99.90;;;;;;5024086;28;20662;-79
2022/11/11 07:05:40;;;;;;;2.60;1.80;;;9.60;99.90;;;;;;5023908;28;20843;-78
2022/11/11 07:08:09;;;;;;;4.80;2.47;;;9.60;99.90;;;;;;5022313;28;20470;-77
2022/11/11 07:10:38;;;;;;;2.93;1.90;;;9.50;99.90;;;;;;5023695;28;21018;-78
2022/11/11 07:13:05;;;;;;;3.50;1.80;;;9.50;99.90;;;;;;5023140;28;20458;-78
2022/11/11 07:15:33;;;;;;;3.47;2.30;;;9.60;99.90;;;;;;5004248;28;20542;-78
2022/11/11 07:18:01;;;;;;;6.43;2.43;;;9.60;99.90;;;;;;5003946;28;20474;-79
2022/11/11 07:20:28;;;;;;;4.77;2.07;;;9.60;99.90;;;;;;5004542;28;20483;-79
2022/11/11 07:22:55;;;;;;;4.00;1.80;;;9.60;99.90;;;;;;5005022;28;20490;-79
2022/11/11 07:25:22;;;;;;;5.63;2.30;;;9.50;99.90;;;;;;5005048;28;20454;-78
2022/11/11 07:27:49;;;;;;;4.07;1.70;;;9.60;99.90;;;;;;5005052;28;20453;-78
2022/11/11 07:30:16;;;;;;;4.00;1.70;;;9.60;99.90;;;;;;5004408;28;20504;-79
2022/11/11 07:32:45;;;;;;;3.33;1.97;;;9.70;99.90;;;;;;5005130;28;20457;-78
2022/11/11 07:35:14;;;;;;;5.03;2.00;;;9.80;99.90;;;;;;5004564;28;20450;-78
2022/11/11 07:37:41;;;;;;;6.20;2.07;;;9.90;99.90;;;;;;5004391;28;20457;-79
2022/11/11 07:40:09;;;;;;;9.43;2.60;;;10.00;99.90;;;;;;5003864;28;20948;-79
2022/11/11 07:42:36;;;;;;;4.73;1.87;;;10.10;99.90;;;;;;5005062;28;20468;-79
2022/11/11 07:45:03;;;;;;;3.70;1.97;;;10.20;99.90;;;;;;5024651;28;20474;-78
2022/11/11 07:47:30;;;;;;;5.80;2.17;;;10.30;99.90;;;;;;5023553;28;20449;-77
2022/11/11 07:49:59;;;;;;;6.23;2.33;;;10.40;99.90;;;;;;5021261;28;20472;-79
2022/11/11 07:52:27;;;;;;;5.00;1.73;;;10.50;99.90;;;;;;5021175;28;20471;-79
2022/11/11 07:54:54;;;;;;;4.30;1.90;;;10.60;99.90;;;;;;5014197;28;20548;-78
2022/11/11 07:57:21;;;;;;;4.10;1.60;;;10.70;99.90;;;;;;5008093;28;20973;-79
2022/11/11 07:59:48;;;;;;;4.40;1.63;;;10.80;99.90;;;;;;5019241;28;20479;-80
2022/11/11 08:02:15;;;;;;;3.90;1.60;;;10.90;99.90;;;;;;5023304;28;20557;-80
2022/11/11 08:04:41;;;;;;;5.60;1.90;;;11.00;99.90;;;;;;5036374;28;20485;-78
2022/11/11 08:07:08;;;;;;;3.10;1.77;;;11.10;99.90;;;;;;5019749;28;20456;-79
2022/11/11 08:09:36;;;;;;;2.97;1.60;;;11.20;99.90;;;;;;5017029;28;20480;-79
2022/11/11 08:14:47;;;;;;;2.97;1.40;;;11.30;99.90;;;;;;5018854;28;20886;-79
2022/11/11 08:17:14;;;;;;;5.20;1.83;;;11.40;99.90;;;;;;5005452;28;20453;-78
2022/11/11 08:19:41;;;;;;;6.23;1.90;;;11.40;99.90;;;;;;5016303;28;20588;-79
2022/11/11 08:22:08;;;;;;;3.30;1.57;;;11.50;99.90;;;;;;5017691;28;20453;-78
2022/11/11 08:24:36;;;;;;;3.43;1.50;;;11.60;99.90;;;;;;5011305;28;20478;-79
2022/11/11 08:27:03;;;;;;;6.47;1.90;;;11.60;99.90;;;;;;4999034;28;20465;-79
2022/11/11 08:29:30;;;;;;;4.57;1.43;;;11.70;99.90;;;;;;5016293;28;20470;-78
2022/11/11 08:31:57;;;;;;;4.53;1.77;;;11.70;99.90;;;;;;5016463;28;20548;-78
2022/11/11 08:34:24;;;;;;;8.80;2.30;;;11.80;99.90;;;;;;5016657;28;20447;-77
2022/11/11 08:36:51;;;;;;;5.03;1.50;;;11.80;99.90;;;;;;5016252;28;20452;-79
2022/11/11 08:39:18;;;;;;;2.57;1.60;;;12.00;99.90;;;;;;5015681;28;20489;-79
2022/11/11 08:41:46;;;;;;;3.37;1.40;;;12.10;99.90;;;;;;5017478;28;20969;-79
2022/11/11 08:44:13;;;;;;;3.90;1.47;;;12.20;99.90;;;;;;5018043;28;20489;-79
2022/11/11 08:46:40;;;;;;;2.73;1.27;;;12.20;99.90;;;;;;5015898;28;20462;-79
2022/11/11 08:49:10;;;;;;;3.47;1.50;;;12.30;99.90;;;;;;5016134;28;20561;-78
2022/11/11 08:51:36;;;;;;;5.80;1.20;;;12.40;99.90;;;;;;5017343;28;20546;-78
2022/11/11 08:54:04;;;;;;;4.33;1.93;;;12.50;99.90;;;;;;5016661;28;20462;-78
2022/11/11 08:56:30;;;;;;;3.03;1.40;;;12.60;99.90;;;;;;5016666;28;20547;-79
2022/11/11 08:58:59;;;;;;;3.13;1.60;;;12.60;99.90;;;;;;5013751;28;20479;-79
2022/11/11 09:01:25;;;;;;;3.07;1.53;;;12.70;99.90;;;;;;5015061;28;20460;-79
2022/11/11 09:03:52;;;;;;;2.53;1.23;;;12.70;99.90;;;;;;4999569;28;20857;-80
2022/11/11 09:06:19;;;;;;;4.70;1.37;;;12.70;99.90;;;;;;4998227;28;20461;-78
2022/11/11 09:08:46;;;;;;;3.70;1.50;;;12.80;99.90;;;;;;4996429;28;20538;-79
2022/11/11 09:11:12;;;;;;;2.63;1.50;;;12.90;99.90;;;;;;4997767;28;20543;-78
2022/11/11 09:13:40;;;;;;;4.20;1.40;;;13.00;99.90;;;;;;4997348;28;20548;-80
2022/11/11 09:16:09;;;;;;;4.70;1.30;;;13.10;99.90;;;;;;4997488;28;20466;-77
2022/11/11 09:18:36;;;;;;;2.73;1.30;;;13.10;99.90;;;;;;4995234;28;20473;-79
2022/11/11 09:21:03;;;;;;;3.97;1.50;;;13.20;99.90;;;;;;4996303;28;20453;-79
2022/11/11 09:23:29;;;;;;;3.97;1.30;;;13.20;99.90;;;;;;4997485;28;20934;-78
2022/11/11 09:25:58;;;;;;;3.90;1.50;;;13.20;99.90;;;;;;5015796;28;20450;-79
2022/11/11 09:28:24;;;;;;;3.00;1.10;;;13.30;99.90;;;;;;5013261;28;20457;-80
2022/11/11 09:30:51;;;;;;;3.77;1.60;;;13.30;99.90;;;;;;5017247;28;20533;-79
2022/11/11 09:33:19;;;;;;;3.77;1.63;;;13.30;99.90;;;;;;5006398;28;20464;-78
2022/11/11 09:35:46;;;;;;;6.20;1.73;;;13.30;99.90;;;;;;4997206;28;20450;-78
2022/11/11 09:38:13;;;;;;;2.33;1.17;;;13.30;99.90;;;;;;4996032;28;20458;-78
2022/11/11 09:40:52;;;;;;;2.97;1.03;;;13.40;99.90;;;;;;4996242;28;20903;-79
2022/11/11 09:43:33;;;;;;;2.60;1.30;;;13.40;99.90;;;;;;5006936;28;20447;-77
2022/11/11 09:46:20;;;;;;;3.40;1.33;;;13.50;99.90;;;;;;5016047;28;20464;-78
2022/11/11 09:49:02;;;;;;;3.47;1.70;;;13.50;99.90;;;;;;5015846;28;20472;-80
2022/11/11 09:51:32;;;;;;;4.83;1.43;;;13.60;99.90;;;;;;5016079;28;20450;-80
2022/11/11 09:54:03;;;;;;;2.77;1.33;;;13.60;99.90;;;;;;5016680;28;20463;-81
2022/11/11 09:56:32;;;;;;;4.73;1.27;;;13.70;99.90;;;;;;5016566;28;20457;-79
2022/11/11 09:59:05;;;;;;;6.70;2.13;;;13.70;99.90;;;;;;5016842;28;20493;-80
2022/11/11 10:01:38;;;;;;;2.80;1.27;;;13.80;99.90;;;;;;5016174;28;20872;-79
2022/11/11 10:04:18;;;;;;;2.40;1.10;;;13.80;99.90;;;;;;5004687;28;20542;-80
2022/11/11 10:06:47;;;;;;;3.70;1.47;;;14.00;99.90;;;;;;5016739;28;20444;-79
2022/11/11 10:09:22;;;;;;;3.30;1.50;;;14.10;99.90;;;;;;5013823;28;21010;-79
2022/11/11 10:11:54;;;;;;;4.10;1.50;;;14.20;99.90;;;;;;5014838;28;20529;-78
2022/11/11 10:14:21;;;;;;;5.83;1.80;;;14.30;99.90;;;;;;4997572;28;20506;-80
2022/11/11 10:17:00;;;;;;;4.50;1.50;;;14.30;99.90;;;;;;4996444;28;20539;-79
2022/11/11 10:19:32;;;;;;;3.00;1.50;;;14.20;99.90;;;;;;4995188;28;20561;-80
2022/11/11 10:22:01;;;;;;;4.27;1.67;;;14.00;99.90;;;;;;4997400;28;20451;-80
2022/11/11 10:24:30;;;;;;;2.73;1.33;;;14.10;99.90;;;;;;5015431;28;20482;-81
2022/11/11 10:27:02;;;;;;;2.53;1.17;;;14.30;99.90;;;;;;5015766;28;20449;-79
2022/11/11 10:29:37;;;;;;;2.73;1.57;;;14.40;99.90;;;;;;5016372;28;20467;-81
2022/11/11 10:32:10;;;;;;;5.90;2.07;;;14.50;99.90;;;;;;5017195;28;20528;-81
2022/11/11 10:34:38;;;;;;;3.93;1.53;;;14.70;99.90;;;;;;5010379;28;20449;-80
2022/11/11 10:37:17;;;;;;;2.93;1.30;;;14.80;99.90;;;;;;5029674;28;20548;-81
2022/11/11 10:39:58;;;;;;;5.73;1.50;;;14.90;99.90;;;;;;5015242;28;20486;-80
2022/11/11 10:42:25;;;;;;;2.97;1.60;;;14.90;99.90;;;;;;5014804;28;21002;-81
2022/11/11 10:44:59;;;;;;;3.17;1.47;;;15.00;99.90;;;;;;5017255;28;20568;-81
2022/11/11 10:47:38;;;;;;;4.53;1.67;;;15.00;99.90;;;;;;5017942;28;20434;-80
2022/11/11 10:50:15;;;;;;;3.80;1.17;;;15.10;99.90;;;;;;5014445;28;20474;-79
2022/11/11 10:52:47;;;;;;;3.03;1.10;;;15.30;99.90;;;;;;5006011;28;20532;-79
2022/11/11 10:55:20;;;;;;;4.40;1.57;;;15.50;99.90;;;;;;5014553;28;20456;-81
2022/11/11 10:57:51;;;;;;;3.00;1.50;;;15.60;99.90;;;;;;5009709;28;20539;-80
2022/11/11 11:00:18;;;;;;;3.87;1.70;;;15.70;99.90;;;;;;4998046;28;20470;-80
2022/11/11 11:02:52;;;;;;;3.10;1.53;;;15.80;99.90;;;;;;5013564;28;20456;-80
2022/11/11 11:05:26;;;;;;;4.10;1.60;;;16.30;99.90;;;;;;4995261;28;20544;-78
2022/11/11 11:07:59;;;;;;;4.77;1.40;;;17.20;99.90;;;;;;5003320;28;20527;-80
2022/11/11 11:10:32;;;;;;;3.80;1.33;;;18.10;99.90;;;;;;5014842;28;20856;-82
2022/11/11 11:13:04;;;;;;;2.97;1.20;;;18.80;99.90;;;;;;5004969;28;20448;-78
2022/11/11 11:15:34;;;;;;;3.10;1.40;;;19.60;99.90;;;;;;4999570;28;20467;-78
2022/11/11 11:18:06;;;;;;;3.20;1.40;;;19.90;99.90;;;;;;5014237;28;20559;-80
2022/11/11 11:20:37;;;;;;;4.33;1.50;;;20.20;99.90;;;;;;5012752;28;20472;-79
2022/11/11 11:23:04;;;;;;;4.10;1.63;;;21.10;99.90;;;;;;5012992;28;20445;-79
2022/11/11 11:25:33;;;;;;;4.37;1.30;;;21.70;99.90;;;;;;5018965;28;20855;-79
2022/11/11 11:28:09;;;;;;;2.83;1.20;;;21.80;99.90;;;;;;5017858;28;21021;-79
2022/11/11 11:30:36;;;;;;;3.03;1.23;;;21.30;99.90;;;;;;5019975;28;20447;-80
2022/11/11 11:33:04;;;;;;;3.80;1.33;;;22.00;99.90;;;;;;5020119;28;20481;-82
2022/11/11 11:35:38;;;;;;;3.47;1.20;;;22.60;99.90;;;;;;5001923;28;20545;-80
2022/11/11 11:38:07;;;;;;;3.00;1.23;;;22.40;99.90;;;;;;4998882;28;20982;-80
2022/11/11 11:40:48;;;;;;;3.17;1.50;;;22.90;99.90;;;;;;5043697;23;20506;-77
2022/11/11 11:43:33;;;;;;;3.13;1.10;;;22.90;99.90;;;;;;5036589;28;20451;-78
2022/11/11 11:46:02;;;;;;;3.70;1.57;;;23.70;99.90;;;;;;5044094;28;20991;-77
2022/11/11 11:48:41;;;;;;;3.70;1.27;;;23.20;97.30;;;;;;5054443;28;20447;-78
2022/11/11 11:51:20;;;;;;;3.10;1.00;;;23.10;97.20;;;;;;5055439;28;20565;-78
2022/11/11 11:53:58;;;;;;;2.63;0.97;;;22.60;96.00;;;;;;5035740;28;20493;-78
2022/11/11 11:56:36;;;;;;;3.17;1.20;;;21.40;95.10;;;;;;5034881;28;20531;-77
2022/11/11 11:59:11;;;;;;;3.67;1.20;;;21.10;95.60;;;;;;5035026;28;20980;-76
2022/11/11 12:01:50;;;;;;;2.63;0.90;;;21.40;95.40;;;;;;5035262;28;20481;-76
2022/11/11 12:04:52;;;;;;;4.17;1.10;;;21.00;95.50;;;;;;5036079;28;20512;-77
2022/11/11 12:07:35;;;;;;;2.57;1.10;;;20.60;96.60;;;;;;5035675;28;20979;-77
2022/11/11 12:10:12;;;;;;;2.83;0.87;;;20.10;96.10;;;;;;5049417;28;20455;-78
2022/11/11 12:12:45;;;;;;;2.77;1.00;;;19.80;96.80;;;;;;5055909;28;20460;-77
2022/11/11 12:15:23;;;;;;;2.27;0.90;;;19.30;98.10;;;;;;5055884;28;20545;-77
2022/11/11 12:17:59;;;;;;;3.17;1.20;;;19.10;97.60;;;;;;5055820;28;20435;-78
2022/11/11 12:20:29;;;;;;;3.33;1.43;;;18.80;98.00;;;;;;5055269;28;20555;-78
2022/11/11 12:23:25;;;;;;;3.87;1.13;;;18.50;98.90;;;;;;5055769;28;20454;-77
2022/11/11 12:26:01;;;;;;;4.03;1.57;;;18.20;99.90;;;;;;5054884;28;20487;-78
2022/11/11 12:28:43;;;;;;;3.73;1.30;;;18.10;99.90;;;;;;5054718;28;20444;-78
2022/11/11 12:31:22;;;;;;;3.03;1.10;;;17.70;99.90;;;;;;5053667;28;20480;-78
2022/11/11 12:34:02;;;;;;;2.87;1.10;;;17.50;99.90;;;;;;5054478;28;20951;-79
2022/11/11 12:36:36;;;;;;;4.67;1.40;;;17.70;99.90;;;;;;5054918;28;20525;-75
2022/11/11 12:39:11;;;;;;;2.27;1.00;;;17.50;99.90;;;;;;5054475;28;20538;-76
2022/11/11 12:41:52;;;;;;;4.73;1.23;;;17.40;99.90;;;;;;5052826;28;20559;-79
2022/11/11 12:44:22;;;;;;;2.10;0.87;;;17.40;99.90;;;;;;5053369;28;20472;-77
2022/11/11 12:47:05;;;;;;;3.40;0.90;;;17.30;99.90;;;;;;5055459;28;20861;-78
2022/11/11 12:49:48;;;;;;;2.43;1.00;;;17.00;99.90;;;;;;5056420;28;21035;-80
2022/11/11 12:52:24;;;;;;;3.93;1.13;;;16.90;99.90;;;;;;5057762;28;20556;-79
2022/11/11 12:55:07;;;;;;;4.37;0.87;;;17.00;99.90;;;;;;5057521;28;20510;-79
2022/11/11 12:57:46;;;;;;;3.20;1.27;;;16.90;99.90;;;;;;5057275;28;20445;-78
2022/11/11 13:00:19;;;;;;;2.60;1.00;;;16.70;99.90;;;;;;5056166;28;20853;-76
2022/11/11 13:03:15;;;;;;;5.63;1.07;;;16.60;99.90;;;;;;5056737;28;20460;-79
2022/11/11 13:05:48;;;;;;;2.53;0.90;;;16.60;99.90;;;;;;5056297;28;21065;-80
2022/11/11 13:08:47;;;;;;;4.23;1.37;;;16.50;99.90;;;;;;5055096;28;20443;-79
2022/11/11 13:11:21;;;;;;;2.80;1.30;;;16.60;99.90;;;;;;5047672;28;20555;-80
2022/11/11 13:13:57;;;;;;;3.50;1.03;;;16.60;99.90;;;;;;5053396;28;20469;-76
2022/11/11 13:16:26;;;;;;;3.90;1.00;;;16.50;99.90;;;;;;5054095;28;20453;-78
2022/11/11 13:18:58;;;;;;;3.30;1.37;;;16.50;99.90;;;;;;5052134;28;20461;-77
2022/11/11 13:21:31;;;;;;;4.00;1.63;;;16.20;99.90;;;;;;5051876;28;20467;-78
2022/11/11 13:23:58;;;;;;;3.50;1.50;;;16.30;99.90;;;;;;5053121;28;20492;-77
2022/11/11 13:26:33;;;;;;;3.47;1.30;;;16.30;99.90;;;;;;5052841;28;21067;-79
2022/11/11 13:29:28;;;;;;;5.00;1.77;;;16.20;99.90;;;;;;5051548;28;20834;-78
2022/11/11 13:31:56;;;;;;;4.20;1.67;;;16.20;99.90;;;;;;5053388;28;20470;-77
2022/11/11 13:34:25;;;;;;;3.67;1.53;;;16.00;99.90;;;;;;5053565;28;20446;-78
2022/11/11 13:36:54;;;;;;;3.13;1.30;;;15.90;99.90;;;;;;5053302;28;21022;-79
2022/11/11 13:39:28;;;;;;;11.30;2.60;;;15.80;99.90;;;;;;5054847;28;20466;-78
2022/11/11 13:42:01;;;;;;;8.77;2.20;;;15.80;99.90;;;;;;5054478;28;20566;-78
2022/11/11 13:44:32;;;;;;;8.53;1.80;;;15.60;99.90;;;;;;5042213;28;21069;-77
2022/11/11 13:47:04;;;;;;;3.70;1.30;;;15.50;99.90;;;;;;5056493;28;20847;-77
2022/11/11 13:49:35;;;;;;;5.43;1.43;;;15.40;99.90;;;;;;5053881;28;20895;-80
2022/11/11 13:52:04;;;;;;;2.77;1.20;;;15.50;99.90;;;;;;5058682;28;20580;-79
2022/11/11 13:54:33;;;;;;;2.10;0.93;;;15.40;99.90;;;;;;5054408;28;20539;-80
2022/11/11 13:57:07;;;;;;;4.20;1.10;;;15.30;99.90;;;;;;5050479;28;20446;-79
2022/11/11 13:59:38;;;;;;;3.13;1.03;;;15.20;99.90;;;;;;5038067;28;20537;-79
2022/11/11 14:02:28;;;;;;;3.63;1.30;;;15.40;99.90;;;;;;5052497;28;20959;-78
2022/11/11 14:05:25;;;;;;;2.90;1.00;;;15.40;99.90;;;;;;5050700;28;20476;-77
2022/11/11 14:07:55;;;;;;;4.30;1.00;;;15.20;99.90;;;;;;5041736;28;20511;-78
2022/11/11 14:10:55;;;;;;;2.30;1.00;;;15.10;99.90;;;;;;5054616;28;20859;-77
2022/11/11 14:13:42;;;;;;;8.50;1.20;;;15.00;99.90;;;;;;5053965;28;20452;-80
2022/11/11 14:16:32;;;;;;;2.40;0.93;;;15.00;99.90;;;;;;5057644;28;20480;-79
2022/11/11 14:18:59;;;;;;;3.20;1.07;;;15.00;99.90;;;;;;5055443;28;20557;-80
2022/11/11 14:21:50;;;;;;;3.63;0.93;;;14.90;99.90;;;;;;5056289;28;20564;-78
2022/11/11 14:24:25;;;;;;;4.30;1.37;;;14.80;99.90;;;;;;5057857;28;20981;-78
2022/11/11 14:27:00;;;;;;;2.57;1.10;;;14.70;99.90;;;;;;5050660;28;20453;-82